sensor_id;sensor_type;location;lat;lon;timestamp;P1;durP1;ratioP1;P2;durP2;ratioP2
417;SDS011;49;48.530;9.200;2023-07-29T00:02:02;7.77;;;3.47;;
417;SDS011;49;48.530;9.200;2023-07-29T00:04:30;8.33;;;3.73;;
417;SDS011;49;48.530;9.200;2023-07-29T00:06:56;5.20;;;3.67;;
417;SDS011;49;48.530;9.200;2023-07-29T00:09:23;6.83;;;3.60;;
417;SDS011;49;48.530;9.200;2023-07-29T00:11:50;5.63;;;3.97;;
417;SDS011;49;48.530;9.200;2023-07-29T00:14:17;7.20;;;3.50;;
417;SDS011;49;48.530;9.200;2023-07-29T00:16:45;5.60;;;4.43;;
417;SDS011;49;48.530;9.200;2023-07-29T00:19:12;4.80;;;3.80;;
417;SDS011;49;48.530;9.200;2023-07-29T00:21:39;10.33;;;4.60;;
417;SDS011;49;48.530;9.200;2023-07-29T00:24:06;8.50;;;4.70;;
417;SDS011;49;48.530;9.200;2023-07-29T00:26:33;6.37;;;3.70;;
417;SDS011;49;48.530;9.200;2023-07-29T00:29:00;5.30;;;4.77;;
417;SDS011;49;48.530;9.200;2023-07-29T00:31:27;18.17;;;4.17;;
417;SDS011;49;48.530;9.200;2023-07-29T00:33:55;9.80;;;4.23;;
417;SDS011;49;48.530;9.200;2023-07-29T00:36:23;7.40;;;4.30;;
417;SDS011;49;48.530;9.200;2023-07-29T00:38:50;8.47;;;4.10;;
417;SDS011;49;48.530;9.200;2023-07-29T00:41:18;13.13;;;4.67;;
417;SDS011;49;48.530;9.200;2023-07-29T00:43:45;6.23;;;4.57;;
417;SDS011;49;48.530;9.200;2023-07-29T00:46:12;7.10;;;4.40;;
417;SDS011;49;48.530;9.200;2023-07-29T00:48:39;5.20;;;4.20;;
417;SDS011;49;48.530;9.200;2023-07-29T00:51:07;6.33;;;4.90;;
417;SDS011;49;48.530;9.200;2023-07-29T00:53:34;6.70;;;5.33;;
417;SDS011;49;48.530;9.200;2023-07-29T00:56:01;5.10;;;4.10;;
417;SDS011;49;48.530;9.200;2023-07-29T00:58:28;5.93;;;4.50;;
417;SDS011;49;48.530;9.200;2023-07-29T01:00:55;8.50;;;4.83;;
417;SDS011;49;48.530;9.200;2023-07-29T01:03:23;8.30;;;5.30;;
417;SDS011;49;48.530;9.200;2023-07-29T01:05:50;8.27;;;6.00;;
417;SDS011;49;48.530;9.200;2023-07-29T01:08:28;13.03;;;6.07;;
417;SDS011;49;48.530;9.200;2023-07-29T01:11:03;7.63;;;5.73;;
417;SDS011;49;48.530;9.200;2023-07-29T01:13:44;13.53;;;5.10;;
417;SDS011;49;48.530;9.200;2023-07-29T01:16:19;14.03;;;5.13;;
417;SDS011;49;48.530;9.200;2023-07-29T01:18:49;6.67;;;5.03;;
417;SDS011;49;48.530;9.200;2023-07-29T01:21:20;6.80;;;5.00;;
417;SDS011;49;48.530;9.200;2023-07-29T01:23:50;7.00;;;5.03;;
417;SDS011;49;48.530;9.200;2023-07-29T01:26:18;5.93;;;4.20;;
417;SDS011;49;48.530;9.200;2023-07-29T01:28:45;6.50;;;4.60;;
417;SDS011;49;48.530;9.200;2023-07-29T01:31:13;8.50;;;4.60;;
417;SDS011;49;48.530;9.200;2023-07-29T01:33:46;8.03;;;4.80;;
417;SDS011;49;48.530;9.200;2023-07-29T01:36:18;9.80;;;4.40;;
417;SDS011;49;48.530;9.200;2023-07-29T01:38:50;7.47;;;5.27;;
417;SDS011;49;48.530;9.200;2023-07-29T01:41:18;9.63;;;5.70;;
417;SDS011;49;48.530;9.200;2023-07-29T01:43:46;9.43;;;4.97;;
417;SDS011;49;48.530;9.200;2023-07-29T01:46:14;15.40;;;5.20;;
417;SDS011;49;48.530;9.200;2023-07-29T01:48:41;13.93;;;5.40;;
417;SDS011;49;48.530;9.200;2023-07-29T01:51:10;10.87;;;4.90;;
417;SDS011;49;48.530;9.200;2023-07-29T01:53:38;12.83;;;5.60;;
417;SDS011;49;48.530;9.200;2023-07-29T01:56:06;6.30;;;4.40;;
417;SDS011;49;48.530;9.200;2023-07-29T01:58:33;7.00;;;3.83;;
417;SDS011;49;48.530;9.200;2023-07-29T02:01:00;9.40;;;4.30;;
417;SDS011;49;48.530;9.200;2023-07-29T02:03:27;8.33;;;4.30;;
417;SDS011;49;48.530;9.200;2023-07-29T02:05:54;10.80;;;4.83;;
417;SDS011;49;48.530;9.200;2023-07-29T02:08:21;12.87;;;4.57;;
417;SDS011;49;48.530;9.200;2023-07-29T02:10:48;7.03;;;4.93;;
417;SDS011;49;48.530;9.200;2023-07-29T02:13:16;14.87;;;5.10;;
417;SDS011;49;48.530;9.200;2023-07-29T02:15:43;10.00;;;4.43;;
417;SDS011;49;48.530;9.200;2023-07-29T02:18:10;9.87;;;4.50;;
417;SDS011;49;48.530;9.200;2023-07-29T02:20:37;8.67;;;4.60;;
417;SDS011;49;48.530;9.200;2023-07-29T02:23:03;10.10;;;4.60;;
417;SDS011;49;48.530;9.200;2023-07-29T02:25:30;12.07;;;4.97;;
417;SDS011;49;48.530;9.200;2023-07-29T02:27:57;7.10;;;5.30;;
417;SDS011;49;48.530;9.200;2023-07-29T02:30:26;11.63;;;4.83;;
417;SDS011;49;48.530;9.200;2023-07-29T02:32:52;14.20;;;4.63;;
417;SDS011;49;48.530;9.200;2023-07-29T02:35:19;12.93;;;6.10;;
417;SDS011;49;48.530;9.200;2023-07-29T02:37:46;6.03;;;5.03;;
417;SDS011;49;48.530;9.200;2023-07-29T02:43:42;18.63;;;5.50;;
417;SDS011;49;48.530;9.200;2023-07-29T02:46:10;7.80;;;4.90;;
417;SDS011;49;48.530;9.200;2023-07-29T02:48:37;9.17;;;5.27;;
417;SDS011;49;48.530;9.200;2023-07-29T02:51:03;13.50;;;5.63;;
417;SDS011;49;48.530;9.200;2023-07-29T02:53:30;16.70;;;5.43;;
417;SDS011;49;48.530;9.200;2023-07-29T02:55:57;11.97;;;5.33;;
417;SDS011;49;48.530;9.200;2023-07-29T02:58:24;17.30;;;4.80;;
417;SDS011;49;48.530;9.200;2023-07-29T03:00:52;14.03;;;4.77;;
417;SDS011;49;48.530;9.200;2023-07-29T03:03:21;18.40;;;4.77;;
417;SDS011;49;48.530;9.200;2023-07-29T03:05:48;11.70;;;4.30;;
417;SDS011;49;48.530;9.200;2023-07-29T03:08:14;8.33;;;4.50;;
417;SDS011;49;48.530;9.200;2023-07-29T03:10:41;9.30;;;4.47;;
417;SDS011;49;48.530;9.200;2023-07-29T03:13:08;13.10;;;4.53;;
417;SDS011;49;48.530;9.200;2023-07-29T03:15:35;9.90;;;5.07;;
417;SDS011;49;48.530;9.200;2023-07-29T03:18:02;7.37;;;4.77;;
417;SDS011;49;48.530;9.200;2023-07-29T03:20:31;9.87;;;4.80;;
417;SDS011;49;48.530;9.200;2023-07-29T03:22:58;13.20;;;5.17;;
417;SDS011;49;48.530;9.200;2023-07-29T03:25:24;6.20;;;4.17;;
417;SDS011;49;48.530;9.200;2023-07-29T03:27:51;10.43;;;3.97;;
417;SDS011;49;48.530;9.200;2023-07-29T03:30:19;10.03;;;4.77;;
417;SDS011;49;48.530;9.200;2023-07-29T03:32:46;5.00;;;3.93;;
417;SDS011;49;48.530;9.200;2023-07-29T03:35:13;13.30;;;4.73;;
417;SDS011;49;48.530;9.200;2023-07-29T03:37:41;9.67;;;5.20;;
417;SDS011;49;48.530;9.200;2023-07-29T03:40:08;13.93;;;5.40;;
417;SDS011;49;48.530;9.200;2023-07-29T03:42:36;9.60;;;5.07;;
417;SDS011;49;48.530;9.200;2023-07-29T03:45:03;10.23;;;5.40;;
417;SDS011;49;48.530;9.200;2023-07-29T03:47:30;11.03;;;4.90;;
417;SDS011;49;48.530;9.200;2023-07-29T03:49:57;10.03;;;4.57;;
417;SDS011;49;48.530;9.200;2023-07-29T03:52:24;8.90;;;5.10;;
417;SDS011;49;48.530;9.200;2023-07-29T03:54:52;19.03;;;5.73;;
417;SDS011;49;48.530;9.200;2023-07-29T03:57:19;20.07;;;5.00;;
417;SDS011;49;48.530;9.200;2023-07-29T03:59:46;9.27;;;5.37;;
417;SDS011;49;48.530;9.200;2023-07-29T04:02:12;13.80;;;5.10;;
417;SDS011;49;48.530;9.200;2023-07-29T04:04:39;11.80;;;5.40;;
417;SDS011;49;48.530;9.200;2023-07-29T04:07:07;10.13;;;5.23;;
417;SDS011;49;48.530;9.200;2023-07-29T04:09:33;10.30;;;4.83;;
417;SDS011;49;48.530;9.200;2023-07-29T04:12:02;6.53;;;5.10;;
417;SDS011;49;48.530;9.200;2023-07-29T04:14:29;8.10;;;4.20;;
417;SDS011;49;48.530;9.200;2023-07-29T04:16:56;8.23;;;4.43;;
417;SDS011;49;48.530;9.200;2023-07-29T04:19:22;7.80;;;4.43;;
417;SDS011;49;48.530;9.200;2023-07-29T04:21:49;7.13;;;4.90;;
417;SDS011;49;48.530;9.200;2023-07-29T04:24:16;8.67;;;5.20;;
417;SDS011;49;48.530;9.200;2023-07-29T04:26:45;16.50;;;4.80;;
417;SDS011;49;48.530;9.200;2023-07-29T04:29:13;8.30;;;5.97;;
417;SDS011;49;48.530;9.200;2023-07-29T04:31:40;7.83;;;5.03;;
417;SDS011;49;48.530;9.200;2023-07-29T04:34:07;10.20;;;5.13;;
417;SDS011;49;48.530;9.200;2023-07-29T04:36:35;10.13;;;5.23;;
417;SDS011;49;48.530;9.200;2023-07-29T04:39:01;9.37;;;4.63;;
417;SDS011;49;48.530;9.200;2023-07-29T04:41:28;10.07;;;4.53;;
417;SDS011;49;48.530;9.200;2023-07-29T04:43:55;10.83;;;4.60;;
417;SDS011;49;48.530;9.200;2023-07-29T04:46:24;9.40;;;4.43;;
417;SDS011;49;48.530;9.200;2023-07-29T04:48:50;7.67;;;4.60;;
417;SDS011;49;48.530;9.200;2023-07-29T04:51:17;6.87;;;3.77;;
417;SDS011;49;48.530;9.200;2023-07-29T04:53:44;13.53;;;4.07;;
417;SDS011;49;48.530;9.200;2023-07-29T04:56:11;5.93;;;4.30;;
417;SDS011;49;48.530;9.200;2023-07-29T04:58:38;7.03;;;3.47;;
417;SDS011;49;48.530;9.200;2023-07-29T05:01:05;7.33;;;3.80;;
417;SDS011;49;48.530;9.200;2023-07-29T05:03:35;4.83;;;3.70;;
417;SDS011;49;48.530;9.200;2023-07-29T05:06:04;8.30;;;3.63;;
417;SDS011;49;48.530;9.200;2023-07-29T05:08:31;4.10;;;3.30;;
417;SDS011;49;48.530;9.200;2023-07-29T05:10:58;9.70;;;3.90;;
417;SDS011;49;48.530;9.200;2023-07-29T05:13:25;39.30;;;7.30;;
417;SDS011;49;48.530;9.200;2023-07-29T05:15:52;16.53;;;4.73;;
417;SDS011;49;48.530;9.200;2023-07-29T05:18:19;9.40;;;3.60;;
417;SDS011;49;48.530;9.200;2023-07-29T05:20:48;5.83;;;3.00;;
417;SDS011;49;48.530;9.200;2023-07-29T05:23:14;7.37;;;4.10;;
417;SDS011;49;48.530;9.200;2023-07-29T05:25:41;5.90;;;3.60;;
417;SDS011;49;48.530;9.200;2023-07-29T05:28:08;5.20;;;3.90;;
417;SDS011;49;48.530;9.200;2023-07-29T05:30:35;6.23;;;3.70;;
417;SDS011;49;48.530;9.200;2023-07-29T05:33:04;7.00;;;3.83;;
417;SDS011;49;48.530;9.200;2023-07-29T05:35:32;6.70;;;3.60;;
417;SDS011;49;48.530;9.200;2023-07-29T05:38:01;6.93;;;3.90;;
417;SDS011;49;48.530;9.200;2023-07-29T05:40:30;4.83;;;3.40;;
417;SDS011;49;48.530;9.200;2023-07-29T05:42:57;5.30;;;3.60;;
417;SDS011;49;48.530;9.200;2023-07-29T05:45:23;7.00;;;3.70;;
417;SDS011;49;48.530;9.200;2023-07-29T05:47:50;5.83;;;3.33;;
417;SDS011;49;48.530;9.200;2023-07-29T05:50:19;8.90;;;4.00;;
417;SDS011;49;48.530;9.200;2023-07-29T05:52:46;7.40;;;3.33;;
417;SDS011;49;48.530;9.200;2023-07-29T05:55:14;4.80;;;3.23;;
417;SDS011;49;48.530;9.200;2023-07-29T05:57:41;5.17;;;3.30;;
417;SDS011;49;48.530;9.200;2023-07-29T06:00:08;5.10;;;3.13;;
417;SDS011;49;48.530;9.200;2023-07-29T06:02:35;6.60;;;3.17;;
417;SDS011;49;48.530;9.200;2023-07-29T06:05:02;5.97;;;3.40;;
417;SDS011;49;48.530;9.200;2023-07-29T06:07:30;4.40;;;3.00;;
417;SDS011;49;48.530;9.200;2023-07-29T06:09:58;4.77;;;3.00;;
417;SDS011;49;48.530;9.200;2023-07-29T06:12:27;5.20;;;3.43;;
417;SDS011;49;48.530;9.200;2023-07-29T06:14:53;4.20;;;2.80;;
417;SDS011;49;48.530;9.200;2023-07-29T06:17:20;7.50;;;2.97;;
417;SDS011;49;48.530;9.200;2023-07-29T06:19:47;3.20;;;2.40;;
417;SDS011;49;48.530;9.200;2023-07-29T06:22:14;7.37;;;2.40;;
417;SDS011;49;48.530;9.200;2023-07-29T06:24:41;9.20;;;2.90;;
417;SDS011;49;48.530;9.200;2023-07-29T06:27:08;11.93;;;2.70;;
417;SDS011;49;48.530;9.200;2023-07-29T06:29:37;4.47;;;3.00;;
417;SDS011;49;48.530;9.200;2023-07-29T06:32:05;4.23;;;2.67;;
417;SDS011;49;48.530;9.200;2023-07-29T06:34:32;4.90;;;2.67;;
417;SDS011;49;48.530;9.200;2023-07-29T06:36:59;4.13;;;2.80;;
417;SDS011;49;48.530;9.200;2023-07-29T06:39:26;8.77;;;3.20;;
417;SDS011;49;48.530;9.200;2023-07-29T06:41:52;3.73;;;2.60;;
417;SDS011;49;48.530;9.200;2023-07-29T06:44:20;6.60;;;2.63;;
417;SDS011;49;48.530;9.200;2023-07-29T06:46:48;4.60;;;2.90;;
417;SDS011;49;48.530;9.200;2023-07-29T06:49:15;5.83;;;2.47;;
417;SDS011;49;48.530;9.200;2023-07-29T06:51:42;4.40;;;3.03;;
417;SDS011;49;48.530;9.200;2023-07-29T06:54:08;6.00;;;3.17;;
417;SDS011;49;48.530;9.200;2023-07-29T06:56:35;7.70;;;3.00;;
417;SDS011;49;48.530;9.200;2023-07-29T06:59:02;7.97;;;3.53;;
417;SDS011;49;48.530;9.200;2023-07-29T07:01:29;8.40;;;3.33;;
417;SDS011;49;48.530;9.200;2023-07-29T07:03:58;13.10;;;4.40;;
417;SDS011;49;48.530;9.200;2023-07-29T07:06:25;14.90;;;3.77;;
417;SDS011;49;48.530;9.200;2023-07-29T07:08:52;6.03;;;3.57;;
417;SDS011;49;48.530;9.200;2023-07-29T07:11:20;5.63;;;3.20;;
417;SDS011;49;48.530;9.200;2023-07-29T07:13:48;8.63;;;3.87;;
417;SDS011;49;48.530;9.200;2023-07-29T07:16:17;9.47;;;4.20;;
417;SDS011;49;48.530;9.200;2023-07-29T07:18:43;6.47;;;4.00;;
417;SDS011;49;48.530;9.200;2023-07-29T07:21:12;11.30;;;3.93;;
417;SDS011;49;48.530;9.200;2023-07-29T07:23:39;7.50;;;3.57;;
417;SDS011;49;48.530;9.200;2023-07-29T07:26:06;8.73;;;3.80;;
417;SDS011;49;48.530;9.200;2023-07-29T07:28:33;5.27;;;3.60;;
417;SDS011;49;48.530;9.200;2023-07-29T07:31:00;19.87;;;5.17;;
417;SDS011;49;48.530;9.200;2023-07-29T07:33:27;10.23;;;4.10;;
417;SDS011;49;48.530;9.200;2023-07-29T07:35:56;6.83;;;4.07;;
417;SDS011;49;48.530;9.200;2023-07-29T07:38:24;6.67;;;4.33;;
417;SDS011;49;48.530;9.200;2023-07-29T07:40:52;7.90;;;4.00;;
417;SDS011;49;48.530;9.200;2023-07-29T07:43:22;9.80;;;4.40;;
417;SDS011;49;48.530;9.200;2023-07-29T07:45:49;15.37;;;4.20;;
417;SDS011;49;48.530;9.200;2023-07-29T07:48:16;4.37;;;3.37;;
417;SDS011;49;48.530;9.200;2023-07-29T07:50:46;6.80;;;3.93;;
417;SDS011;49;48.530;9.200;2023-07-29T07:53:12;7.80;;;3.87;;
417;SDS011;49;48.530;9.200;2023-07-29T07:55:42;7.70;;;4.10;;
417;SDS011;49;48.530;9.200;2023-07-29T07:58:09;10.13;;;3.87;;
417;SDS011;49;48.530;9.200;2023-07-29T08:00:36;6.40;;;4.00;;
417;SDS011;49;48.530;9.200;2023-07-29T08:03:03;5.70;;;3.63;;
417;SDS011;49;48.530;9.200;2023-07-29T08:05:30;15.47;;;3.93;;
417;SDS011;49;48.530;9.200;2023-07-29T08:07:57;14.23;;;3.57;;
417;SDS011;49;48.530;9.200;2023-07-29T08:10:24;10.50;;;3.80;;
417;SDS011;49;48.530;9.200;2023-07-29T08:12:52;8.73;;;4.00;;
417;SDS011;49;48.530;9.200;2023-07-29T08:15:19;5.07;;;3.70;;
417;SDS011;49;48.530;9.200;2023-07-29T08:17:48;6.97;;;3.43;;
417;SDS011;49;48.530;9.200;2023-07-29T08:20:15;4.10;;;3.10;;
417;SDS011;49;48.530;9.200;2023-07-29T08:22:42;7.17;;;3.60;;
417;SDS011;49;48.530;9.200;2023-07-29T08:25:09;7.33;;;3.60;;
417;SDS011;49;48.530;9.200;2023-07-29T08:27:39;10.93;;;3.23;;
417;SDS011;49;48.530;9.200;2023-07-29T08:30:08;6.10;;;2.90;;
417;SDS011;49;48.530;9.200;2023-07-29T08:32:35;5.20;;;3.30;;
417;SDS011;49;48.530;9.200;2023-07-29T08:35:02;6.30;;;3.47;;
417;SDS011;49;48.530;9.200;2023-07-29T08:37:30;4.43;;;3.00;;
417;SDS011;49;48.530;9.200;2023-07-29T08:39:57;4.37;;;3.07;;
417;SDS011;49;48.530;9.200;2023-07-29T08:42:24;4.70;;;3.13;;
417;SDS011;49;48.530;9.200;2023-07-29T08:44:55;4.67;;;3.27;;
417;SDS011;49;48.530;9.200;2023-07-29T08:47:24;4.97;;;3.40;;
417;SDS011;49;48.530;9.200;2023-07-29T08:49:51;3.60;;;2.90;;
417;SDS011;49;48.530;9.200;2023-07-29T08:52:18;6.40;;;3.27;;
417;SDS011;49;48.530;9.200;2023-07-29T08:54:46;7.23;;;3.10;;
417;SDS011;49;48.530;9.200;2023-07-29T08:57:14;5.27;;;3.60;;
417;SDS011;49;48.530;9.200;2023-07-29T08:59:41;8.30;;;4.10;;
417;SDS011;49;48.530;9.200;2023-07-29T09:02:08;5.33;;;3.20;;
417;SDS011;49;48.530;9.200;2023-07-29T09:04:37;10.60;;;3.40;;
417;SDS011;49;48.530;9.200;2023-07-29T09:07:04;5.13;;;3.63;;
417;SDS011;49;48.530;9.200;2023-07-29T09:09:32;4.43;;;3.13;;
417;SDS011;49;48.530;9.200;2023-07-29T09:11:59;7.50;;;3.10;;
417;SDS011;49;48.530;9.200;2023-07-29T09:14:26;4.63;;;3.00;;
417;SDS011;49;48.530;9.200;2023-07-29T09:16:55;4.57;;;2.80;;
417;SDS011;49;48.530;9.200;2023-07-29T09:19:24;4.23;;;2.70;;
417;SDS011;49;48.530;9.200;2023-07-29T09:21:53;3.57;;;2.77;;
417;SDS011;49;48.530;9.200;2023-07-29T09:24:20;6.83;;;3.20;;
417;SDS011;49;48.530;9.200;2023-07-29T09:26:50;4.60;;;3.30;;
417;SDS011;49;48.530;9.200;2023-07-29T09:29:21;14.73;;;3.77;;
417;SDS011;49;48.530;9.200;2023-07-29T09:31:48;4.53;;;3.40;;
417;SDS011;49;48.530;9.200;2023-07-29T09:34:15;11.23;;;3.27;;
417;SDS011;49;48.530;9.200;2023-07-29T09:36:43;6.97;;;3.40;;
417;SDS011;49;48.530;9.200;2023-07-29T09:39:11;9.87;;;3.20;;
417;SDS011;49;48.530;9.200;2023-07-29T09:41:39;7.40;;;3.37;;
417;SDS011;49;48.530;9.200;2023-07-29T09:44:06;6.20;;;3.20;;
417;SDS011;49;48.530;9.200;2023-07-29T09:46:34;4.33;;;2.80;;
417;SDS011;49;48.530;9.200;2023-07-29T09:49:02;5.30;;;3.00;;
417;SDS011;49;48.530;9.200;2023-07-29T09:51:30;4.10;;;3.10;;
417;SDS011;49;48.530;9.200;2023-07-29T09:53:57;4.53;;;3.07;;
417;SDS011;49;48.530;9.200;2023-07-29T09:56:26;5.77;;;3.10;;
417;SDS011;49;48.530;9.200;2023-07-29T09:58:55;3.67;;;2.97;;
417;SDS011;49;48.530;9.200;2023-07-29T10:01:22;7.17;;;3.77;;
417;SDS011;49;48.530;9.200;2023-07-29T10:03:50;6.00;;;2.87;;
417;SDS011;49;48.530;9.200;2023-07-29T10:06:17;6.00;;;3.07;;
417;SDS011;49;48.530;9.200;2023-07-29T10:08:45;4.97;;;3.00;;
417;SDS011;49;48.530;9.200;2023-07-29T10:11:14;4.37;;;2.87;;
417;SDS011;49;48.530;9.200;2023-07-29T10:13:43;5.27;;;3.13;;
417;SDS011;49;48.530;9.200;2023-07-29T10:16:12;6.10;;;3.33;;
417;SDS011;49;48.530;9.200;2023-07-29T10:18:40;6.67;;;2.67;;
417;SDS011;49;48.530;9.200;2023-07-29T10:21:08;5.60;;;3.07;;
417;SDS011;49;48.530;9.200;2023-07-29T10:23:38;6.10;;;2.97;;
417;SDS011;49;48.530;9.200;2023-07-29T10:26:09;8.13;;;3.27;;
417;SDS011;49;48.530;9.200;2023-07-29T10:28:39;3.80;;;3.30;;
417;SDS011;49;48.530;9.200;2023-07-29T10:31:10;8.97;;;3.27;;
417;SDS011;49;48.530;9.200;2023-07-29T10:33:39;9.03;;;3.13;;
417;SDS011;49;48.530;9.200;2023-07-29T10:36:06;3.87;;;3.00;;
417;SDS011;49;48.530;9.200;2023-07-29T10:38:37;4.13;;;2.93;;
417;SDS011;49;48.530;9.200;2023-07-29T10:41:05;8.03;;;3.00;;
417;SDS011;49;48.530;9.200;2023-07-29T10:43:32;4.77;;;2.77;;
417;SDS011;49;48.530;9.200;2023-07-29T10:46:15;8.80;;;2.60;;
417;SDS011;49;48.530;9.200;2023-07-29T10:48:44;3.40;;;2.67;;
417;SDS011;49;48.530;9.200;2023-07-29T10:51:23;7.80;;;2.73;;
417;SDS011;49;48.530;9.200;2023-07-29T10:53:52;2.80;;;2.47;;
417;SDS011;49;48.530;9.200;2023-07-29T10:56:27;3.70;;;3.10;;
417;SDS011;49;48.530;9.200;2023-07-29T10:59:22;5.67;;;2.70;;
417;SDS011;49;48.530;9.200;2023-07-29T11:02:00;4.07;;;3.03;;
417;SDS011;49;48.530;9.200;2023-07-29T11:04:30;6.13;;;3.40;;
417;SDS011;49;48.530;9.200;2023-07-29T11:07:01;6.47;;;3.10;;
417;SDS011;49;48.530;9.200;2023-07-29T11:09:52;5.40;;;2.73;;
417;SDS011;49;48.530;9.200;2023-07-29T11:12:33;4.00;;;3.07;;
417;SDS011;49;48.530;9.200;2023-07-29T11:15:12;5.00;;;2.80;;
417;SDS011;49;48.530;9.200;2023-07-29T11:17:42;6.67;;;3.50;;
417;SDS011;49;48.530;9.200;2023-07-29T11:20:12;3.07;;;2.90;;
417;SDS011;49;48.530;9.200;2023-07-29T11:22:41;4.07;;;2.80;;
417;SDS011;49;48.530;9.200;2023-07-29T11:25:09;4.03;;;2.40;;
417;SDS011;49;48.530;9.200;2023-07-29T11:30:13;3.50;;;2.93;;
417;SDS011;49;48.530;9.200;2023-07-29T11:32:42;4.67;;;2.83;;
417;SDS011;49;48.530;9.200;2023-07-29T11:35:10;4.40;;;3.00;;
417;SDS011;49;48.530;9.200;2023-07-29T11:37:40;9.53;;;3.20;;
417;SDS011;49;48.530;9.200;2023-07-29T11:40:08;4.90;;;3.00;;
417;SDS011;49;48.530;9.200;2023-07-29T11:42:36;4.90;;;3.13;;
417;SDS011;49;48.530;9.200;2023-07-29T11:45:05;5.60;;;3.10;;
417;SDS011;49;48.530;9.200;2023-07-29T11:47:33;4.13;;;2.60;;
417;SDS011;49;48.530;9.200;2023-07-29T11:50:03;4.33;;;2.90;;
417;SDS011;49;48.530;9.200;2023-07-29T11:52:32;5.47;;;3.10;;
417;SDS011;49;48.530;9.200;2023-07-29T11:55:00;4.50;;;2.50;;
417;SDS011;49;48.530;9.200;2023-07-29T11:57:28;3.03;;;2.60;;
417;SDS011;49;48.530;9.200;2023-07-29T12:00:00;3.47;;;2.57;;
417;SDS011;49;48.530;9.200;2023-07-29T12:02:32;3.60;;;2.80;;
417;SDS011;49;48.530;9.200;2023-07-29T12:05:01;3.50;;;2.50;;
417;SDS011;49;48.530;9.200;2023-07-29T12:07:31;6.53;;;3.17;;
417;SDS011;49;48.530;9.200;2023-07-29T12:09:59;9.43;;;2.40;;
417;SDS011;49;48.530;9.200;2023-07-29T12:12:28;2.40;;;2.30;;
417;SDS011;49;48.530;9.200;2023-07-29T12:14:56;3.30;;;2.70;;
417;SDS011;49;48.530;9.200;2023-07-29T12:17:23;5.70;;;4.00;;
417;SDS011;49;48.530;9.200;2023-07-29T12:19:53;7.77;;;3.70;;
417;SDS011;49;48.530;9.200;2023-07-29T12:22:23;3.30;;;2.87;;
417;SDS011;49;48.530;9.200;2023-07-29T12:24:51;4.63;;;3.10;;
417;SDS011;49;48.530;9.200;2023-07-29T12:27:19;3.77;;;2.70;;
417;SDS011;49;48.530;9.200;2023-07-29T12:29:48;4.03;;;2.93;;
417;SDS011;49;48.530;9.200;2023-07-29T12:32:20;5.27;;;3.10;;
417;SDS011;49;48.530;9.200;2023-07-29T12:34:53;3.50;;;2.40;;
417;SDS011;49;48.530;9.200;2023-07-29T12:37:32;6.80;;;2.50;;
417;SDS011;49;48.530;9.200;2023-07-29T12:40:04;4.30;;;2.77;;
417;SDS011;49;48.530;9.200;2023-07-29T12:42:32;11.13;;;3.70;;
417;SDS011;49;48.530;9.200;2023-07-29T12:45:00;5.67;;;2.80;;
417;SDS011;49;48.530;9.200;2023-07-29T12:47:27;5.37;;;3.50;;
417;SDS011;49;48.530;9.200;2023-07-29T12:49:55;4.03;;;2.90;;
417;SDS011;49;48.530;9.200;2023-07-29T12:52:22;9.97;;;3.50;;
417;SDS011;49;48.530;9.200;2023-07-29T12:54:51;4.00;;;2.80;;
417;SDS011;49;48.530;9.200;2023-07-29T12:57:18;3.33;;;2.73;;
417;SDS011;49;48.530;9.200;2023-07-29T12:59:50;4.97;;;2.90;;
417;SDS011;49;48.530;9.200;2023-07-29T13:02:18;3.73;;;3.20;;
417;SDS011;49;48.530;9.200;2023-07-29T13:04:45;3.27;;;2.60;;
417;SDS011;49;48.530;9.200;2023-07-29T13:07:13;7.97;;;3.93;;
417;SDS011;49;48.530;9.200;2023-07-29T13:09:43;7.10;;;2.80;;
417;SDS011;49;48.530;9.200;2023-07-29T13:12:19;7.30;;;3.17;;
417;SDS011;49;48.530;9.200;2023-07-29T13:14:47;6.90;;;3.07;;
417;SDS011;49;48.530;9.200;2023-07-29T13:17:14;4.93;;;3.20;;
417;SDS011;49;48.530;9.200;2023-07-29T13:19:44;5.17;;;3.33;;
417;SDS011;49;48.530;9.200;2023-07-29T13:22:28;3.67;;;3.13;;
417;SDS011;49;48.530;9.200;2023-07-29T13:24:57;4.70;;;3.40;;
417;SDS011;49;48.530;9.200;2023-07-29T13:27:32;7.60;;;3.07;;
417;SDS011;49;48.530;9.200;2023-07-29T13:30:18;7.30;;;2.70;;
417;SDS011;49;48.530;9.200;2023-07-29T13:32:50;4.17;;;2.87;;
417;SDS011;49;48.530;9.200;2023-07-29T13:35:23;5.90;;;2.60;;
417;SDS011;49;48.530;9.200;2023-07-29T13:37:52;4.00;;;2.87;;
417;SDS011;49;48.530;9.200;2023-07-29T13:40:19;5.13;;;3.10;;
417;SDS011;49;48.530;9.200;2023-07-29T13:42:48;4.83;;;3.27;;
417;SDS011;49;48.530;9.200;2023-07-29T13:45:17;5.23;;;3.30;;
417;SDS011;49;48.530;9.200;2023-07-29T13:47:47;13.23;;;3.77;;
417;SDS011;49;48.530;9.200;2023-07-29T13:50:15;4.00;;;2.97;;
417;SDS011;49;48.530;9.200;2023-07-29T13:52:42;3.90;;;2.73;;
417;SDS011;49;48.530;9.200;2023-07-29T13:55:10;4.23;;;2.83;;
417;SDS011;49;48.530;9.200;2023-07-29T13:57:38;5.33;;;3.30;;
417;SDS011;49;48.530;9.200;2023-07-29T14:00:07;4.30;;;3.00;;
417;SDS011;49;48.530;9.200;2023-07-29T14:02:34;7.33;;;3.00;;
417;SDS011;49;48.530;9.200;2023-07-29T14:05:01;3.40;;;3.10;;
417;SDS011;49;48.530;9.200;2023-07-29T14:07:29;7.30;;;2.83;;
417;SDS011;49;48.530;9.200;2023-07-29T14:09:55;3.87;;;2.90;;
417;SDS011;49;48.530;9.200;2023-07-29T14:12:22;4.67;;;3.30;;
417;SDS011;49;48.530;9.200;2023-07-29T14:14:49;5.87;;;3.27;;
417;SDS011;49;48.530;9.200;2023-07-29T14:17:19;4.10;;;3.07;;
417;SDS011;49;48.530;9.200;2023-07-29T14:19:45;4.00;;;3.00;;
417;SDS011;49;48.530;9.200;2023-07-29T14:22:12;4.07;;;3.00;;
417;SDS011;49;48.530;9.200;2023-07-29T14:24:39;4.00;;;2.93;;
417;SDS011;49;48.530;9.200;2023-07-29T14:27:07;3.67;;;3.20;;
417;SDS011;49;48.530;9.200;2023-07-29T14:29:35;7.20;;;3.23;;
417;SDS011;49;48.530;9.200;2023-07-29T14:32:02;3.67;;;2.77;;
417;SDS011;49;48.530;9.200;2023-07-29T14:34:31;3.23;;;2.70;;
417;SDS011;49;48.530;9.200;2023-07-29T14:36:58;6.33;;;2.90;;
417;SDS011;49;48.530;9.200;2023-07-29T14:39:25;3.37;;;2.70;;
417;SDS011;49;48.530;9.200;2023-07-29T14:41:53;4.40;;;3.00;;
417;SDS011;49;48.530;9.200;2023-07-29T14:44:20;3.90;;;3.10;;
417;SDS011;49;48.530;9.200;2023-07-29T14:46:48;3.10;;;2.80;;
417;SDS011;49;48.530;9.200;2023-07-29T14:49:15;7.20;;;3.30;;
417;SDS011;49;48.530;9.200;2023-07-29T14:51:45;3.80;;;3.00;;
417;SDS011;49;48.530;9.200;2023-07-29T14:54:12;5.10;;;2.63;;
417;SDS011;49;48.530;9.200;2023-07-29T14:56:39;7.20;;;3.00;;
417;SDS011;49;48.530;9.200;2023-07-29T14:59:06;3.87;;;2.83;;
417;SDS011;49;48.530;9.200;2023-07-29T15:01:33;6.47;;;2.93;;
417;SDS011;49;48.530;9.200;2023-07-29T15:04:01;7.03;;;3.10;;
417;SDS011;49;48.530;9.200;2023-07-29T15:06:29;3.83;;;2.97;;
417;SDS011;49;48.530;9.200;2023-07-29T15:09:00;4.30;;;2.77;;
417;SDS011;49;48.530;9.200;2023-07-29T15:11:27;5.30;;;2.63;;
417;SDS011;49;48.530;9.200;2023-07-29T15:13:58;5.47;;;3.40;;
417;SDS011;49;48.530;9.200;2023-07-29T15:16:29;4.37;;;3.30;;
417;SDS011;49;48.530;9.200;2023-07-29T15:18:59;4.80;;;3.30;;
417;SDS011;49;48.530;9.200;2023-07-29T15:21:26;6.10;;;2.83;;
417;SDS011;49;48.530;9.200;2023-07-29T15:23:55;4.20;;;3.10;;
417;SDS011;49;48.530;9.200;2023-07-29T15:26:24;5.10;;;2.73;;
417;SDS011;49;48.530;9.200;2023-07-29T15:28:51;6.10;;;3.60;;
417;SDS011;49;48.530;9.200;2023-07-29T15:31:19;4.50;;;3.20;;
417;SDS011;49;48.530;9.200;2023-07-29T15:33:48;4.00;;;2.80;;
417;SDS011;49;48.530;9.200;2023-07-29T15:36:15;5.73;;;3.40;;
417;SDS011;49;48.530;9.200;2023-07-29T15:38:43;4.53;;;3.03;;
417;SDS011;49;48.530;9.200;2023-07-29T15:41:13;3.67;;;3.03;;
417;SDS011;49;48.530;9.200;2023-07-29T15:43:42;3.53;;;2.90;;
417;SDS011;49;48.530;9.200;2023-07-29T15:46:10;7.00;;;3.30;;
417;SDS011;49;48.530;9.200;2023-07-29T15:48:40;14.50;;;3.57;;
417;SDS011;49;48.530;9.200;2023-07-29T15:51:11;4.20;;;3.30;;
417;SDS011;49;48.530;9.200;2023-07-29T15:53:46;6.40;;;3.00;;
417;SDS011;49;48.530;9.200;2023-07-29T15:56:24;4.67;;;2.97;;
417;SDS011;49;48.530;9.200;2023-07-29T15:58:58;3.70;;;3.00;;
417;SDS011;49;48.530;9.200;2023-07-29T16:01:32;4.23;;;3.13;;
417;SDS011;49;48.530;9.200;2023-07-29T16:04:00;4.20;;;2.83;;
417;SDS011;49;48.530;9.200;2023-07-29T16:06:29;4.10;;;2.60;;
417;SDS011;49;48.530;9.200;2023-07-29T16:09:03;5.03;;;3.00;;
417;SDS011;49;48.530;9.200;2023-07-29T16:11:32;7.53;;;3.50;;